createdAt,value
2022-08-25T00:02:02.001Z,30.38
2022-08-25T00:04:31.292Z,33.75
2022-08-25T00:07:03.558Z,38.33
2022-08-25T00:09:33.164Z,28.48
2022-08-25T00:12:01.743Z,28.92
2022-08-25T00:14:36.669Z,30.42
2022-08-25T00:17:06.311Z,35.25
2022-08-25T00:19:37.377Z,36.63
2022-08-25T00:22:05.787Z,32.42
2022-08-25T00:24:34.074Z,25.70
2022-08-25T00:27:02.078Z,27.52
2022-08-25T00:29:31.236Z,33.55
2022-08-25T00:31:59.859Z,30.98
2022-08-25T00:34:34.447Z,28.30
2022-08-25T00:37:06.693Z,32.13
2022-08-25T00:39:35.067Z,31.02
2022-08-25T00:42:04.510Z,37.85
2022-08-25T00:44:35.674Z,30.33
2022-08-25T00:47:05.095Z,32.67
2022-08-25T00:49:41.625Z,26.57
2022-08-25T00:52:14.743Z,33.05
2022-08-25T00:55:03.069Z,26.60
2022-08-25T00:57:38.131Z,31.08
2022-08-25T01:00:17.224Z,33.50
2022-08-25T01:02:45.435Z,31.30
2022-08-25T01:05:13.360Z,29.48
2022-08-25T01:07:44.631Z,30.35
2022-08-25T01:10:13.823Z,30.88
2022-08-25T01:12:42.246Z,31.75
2022-08-25T01:15:14.465Z,31.88
2022-08-25T01:17:54.320Z,32.70
2022-08-25T01:20:29.428Z,28.60
2022-08-25T01:22:58.513Z,32.40
2022-08-25T01:25:48.026Z,33.95
2022-08-25T01:28:16.838Z,32.43
2022-08-25T01:30:44.727Z,32.22
2022-08-25T01:33:12.737Z,27.63
2022-08-25T01:35:41.454Z,33.50
2022-08-25T01:38:09.613Z,32.75
2022-08-25T01:40:40.314Z,27.40
2022-08-25T01:43:18.625Z,25.13
2022-08-25T01:45:48.950Z,27.73
2022-08-25T01:50:44.700Z,31.58
2022-08-25T01:53:22.859Z,29.20
2022-08-25T01:55:54.155Z,37.13
2022-08-25T01:58:30.901Z,33.78
2022-08-25T02:01:03.023Z,29.85
2022-08-25T02:03:31.370Z,32.10
2022-08-25T02:06:01.513Z,33.53
2022-08-25T02:08:32.081Z,31.67
2022-08-25T02:11:00.381Z,29.10
2022-08-25T02:13:32.527Z,33.10
2022-08-25T02:16:02.488Z,32.50
2022-08-25T02:18:31.234Z,28.88
2022-08-25T02:20:59.323Z,30.25
2022-08-25T02:23:27.502Z,31.55
2022-08-25T02:25:57.448Z,29.88
2022-08-25T02:28:26.324Z,30.00
2022-08-25T02:30:58.704Z,26.63
2022-08-25T02:33:30.681Z,26.33
2022-08-25T02:36:00.772Z,33.63
2022-08-25T02:38:30.039Z,35.03
2022-08-25T02:40:59.181Z,31.92
2022-08-25T02:43:28.202Z,28.67
2022-08-25T02:45:56.655Z,22.80
2022-08-25T02:48:26.062Z,30.48
2022-08-25T02:50:53.862Z,35.67
2022-08-25T02:53:22.460Z,31.48
2022-08-25T02:55:50.164Z,25.63
2022-08-25T02:58:18.000Z,29.00
2022-08-25T03:00:47.044Z,29.88
2022-08-25T03:03:15.670Z,29.38
2022-08-25T03:05:43.454Z,27.77
2022-08-25T03:08:11.396Z,31.10
2022-08-25T03:10:39.398Z,33.53
2022-08-25T03:13:07.227Z,30.95
2022-08-25T03:15:38.038Z,39.35
2022-08-25T03:18:08.652Z,41.47
2022-08-25T03:20:36.831Z,53.25
2022-08-25T03:23:06.321Z,44.63
2022-08-25T03:25:53.291Z,37.30
2022-08-25T03:28:25.028Z,40.95
2022-08-25T03:30:58.193Z,47.80
2022-08-25T03:33:26.692Z,44.03
2022-08-25T03:35:55.549Z,36.33
2022-08-25T03:38:24.625Z,44.58
2022-08-25T03:40:53.588Z,36.30
2022-08-25T03:43:21.804Z,39.80
2022-08-25T03:45:49.963Z,41.80
2022-08-25T03:48:18.804Z,33.30
2022-08-25T03:50:52.312Z,39.25
2022-08-25T03:53:20.559Z,41.95
2022-08-25T03:55:48.443Z,36.08
2022-08-25T03:58:16.268Z,30.30
2022-08-25T04:00:44.362Z,42.92
2022-08-25T04:03:12.303Z,35.90
2022-08-25T04:05:40.233Z,36.08
2022-08-25T04:08:09.499Z,37.30
2022-08-25T04:10:37.873Z,38.20
2022-08-25T04:13:06.723Z,34.92
2022-08-25T04:15:36.185Z,33.75
2022-08-25T04:18:04.371Z,33.63
2022-08-25T04:20:32.477Z,31.35
2022-08-25T04:23:01.591Z,36.53
2022-08-25T04:25:29.766Z,40.20
2022-08-25T04:27:58.133Z,41.92
2022-08-25T04:30:25.972Z,39.47
2022-08-25T04:32:53.708Z,32.47
2022-08-25T04:35:23.062Z,38.22
2022-08-25T04:37:51.076Z,28.70
2022-08-25T04:40:19.217Z,34.53
2022-08-25T04:42:51.960Z,32.33
2022-08-25T04:45:19.975Z,36.75
2022-08-25T04:47:50.653Z,33.00
2022-08-25T04:50:22.417Z,33.53
2022-08-25T04:52:50.175Z,37.97
2022-08-25T04:55:18.306Z,28.80
2022-08-25T04:57:46.381Z,32.78
2022-08-25T05:00:14.724Z,36.75
2022-08-25T05:02:42.762Z,37.70
2022-08-25T05:05:10.797Z,38.78
2022-08-25T05:07:38.477Z,39.90
2022-08-25T05:10:06.710Z,38.28
2022-08-25T05:12:34.760Z,32.58
2022-08-25T05:15:24.358Z,39.20
2022-08-25T05:17:55.808Z,35.85
2022-08-25T05:20:25.158Z,39.05
2022-08-25T05:22:53.115Z,35.53
2022-08-25T05:25:21.160Z,32.90
2022-08-25T05:27:48.988Z,36.50
2022-08-25T05:30:16.840Z,30.48
2022-08-25T05:32:45.414Z,26.17
2022-08-25T05:35:13.591Z,34.60
2022-08-25T05:37:41.890Z,33.50
2022-08-25T05:40:10.718Z,30.38
2022-08-25T05:42:38.753Z,31.88
2022-08-25T05:45:07.662Z,33.10
2022-08-25T05:47:36.564Z,29.60
2022-08-25T05:50:04.968Z,26.08
2022-08-25T05:52:33.452Z,26.70
2022-08-25T05:55:01.429Z,28.38
2022-08-25T05:57:29.882Z,26.02
2022-08-25T05:59:57.736Z,23.08
2022-08-25T06:02:44.105Z,29.23
2022-08-25T06:05:14.781Z,26.02
2022-08-25T06:07:43.101Z,24.52
2022-08-25T06:10:14.225Z,27.38
2022-08-25T06:12:45.105Z,26.67
2022-08-25T06:15:19.712Z,29.75
2022-08-25T06:17:49.531Z,33.13
2022-08-25T06:20:25.368Z,26.17
2022-08-25T06:22:54.326Z,25.95
2022-08-25T06:25:24.080Z,23.83
2022-08-25T06:27:52.638Z,40.90
2022-08-25T06:30:24.597Z,24.77
2022-08-25T06:32:57.572Z,19.70
2022-08-25T06:35:25.472Z,22.92
2022-08-25T06:37:53.618Z,28.58
2022-08-25T06:40:22.151Z,21.70
2022-08-25T06:42:50.436Z,22.85
2022-08-25T06:45:18.951Z,30.60
2022-08-25T06:47:46.966Z,21.15
2022-08-25T06:50:16.180Z,25.23
2022-08-25T06:52:44.047Z,27.88
2022-08-25T06:55:12.729Z,22.02
2022-08-25T06:57:40.785Z,19.50
2022-08-25T07:00:12.321Z,22.55
2022-08-25T07:02:40.889Z,19.27
2022-08-25T07:05:13.205Z,19.92
2022-08-25T07:07:44.060Z,31.75
2022-08-25T07:10:14.021Z,23.38
2022-08-25T07:12:47.610Z,20.55
2022-08-25T07:15:20.464Z,24.92
2022-08-25T07:17:50.034Z,19.65
2022-08-25T07:20:19.360Z,18.85
2022-08-25T07:22:48.513Z,17.45
2022-08-25T07:25:17.790Z,22.70
2022-08-25T07:27:47.614Z,28.27
2022-08-25T07:30:17.261Z,22.75
2022-08-25T07:32:45.154Z,29.33
2022-08-25T07:35:15.994Z,19.63
2022-08-25T07:37:52.822Z,25.60
2022-08-25T07:40:28.787Z,25.52
2022-08-25T07:43:00.866Z,27.08
2022-08-25T07:45:31.597Z,19.60
2022-08-25T07:48:02.572Z,21.27
2022-08-25T07:50:31.834Z,28.88
2022-08-25T07:53:00.576Z,23.97
2022-08-25T07:55:30.623Z,26.38
2022-08-25T07:58:01.043Z,27.02
2022-08-25T08:00:30.807Z,22.35
2022-08-25T08:03:00.214Z,29.23
2022-08-25T08:05:32.545Z,18.65
2022-08-25T08:08:01.497Z,25.30
2022-08-25T08:13:18.691Z,28.25
2022-08-25T08:15:47.934Z,22.83
2022-08-25T08:18:16.198Z,21.38
2022-08-25T08:20:47.630Z,21.85
2022-08-25T08:23:16.864Z,20.75
2022-08-25T08:25:44.755Z,19.50
2022-08-25T08:28:12.797Z,21.52
2022-08-25T08:30:53.144Z,19.38
2022-08-25T08:33:23.326Z,19.50
2022-08-25T08:36:05.232Z,25.45
2022-08-25T08:38:35.239Z,21.48
2022-08-25T08:41:23.070Z,24.25
2022-08-25T08:44:00.736Z,27.95
2022-08-25T08:46:43.811Z,20.00
2022-08-25T08:49:50.158Z,18.73
2022-08-25T08:52:22.532Z,30.08
2022-08-25T08:55:01.095Z,17.75
2022-08-25T08:57:32.942Z,19.40
2022-08-25T09:00:03.397Z,19.92
2022-08-25T09:02:51.413Z,20.77
2022-08-25T09:05:26.956Z,21.35
2022-08-25T09:08:11.364Z,18.73
2022-08-25T09:11:01.717Z,16.10
2022-08-25T09:13:41.880Z,33.58
2022-08-25T09:16:42.705Z,16.42
2022-08-25T09:19:21.315Z,18.20
2022-08-25T09:22:34.031Z,18.55
2022-08-25T09:25:39.842Z,18.65
2022-08-25T09:28:41.191Z,16.10
2022-08-25T09:31:40.138Z,20.83
2022-08-25T09:34:25.057Z,16.52
2022-08-25T09:36:53.482Z,21.20
2022-08-25T09:39:23.607Z,19.38
2022-08-25T09:41:59.246Z,20.02
2022-08-25T09:44:34.633Z,20.95
2022-08-25T09:47:18.144Z,18.58
2022-08-25T09:50:05.745Z,18.10
2022-08-25T09:52:41.453Z,17.45
2022-08-25T09:55:15.501Z,19.63
2022-08-25T09:57:46.219Z,28.05
2022-08-25T10:00:26.584Z,22.85
2022-08-25T10:03:24.814Z,22.40
2022-08-25T10:05:58.850Z,26.20
2022-08-25T10:08:51.848Z,19.75
2022-08-25T10:11:41.961Z,21.83
2022-08-25T10:14:19.528Z,17.27
2022-08-25T10:16:49.452Z,17.95
2022-08-25T10:19:27.744Z,18.55
2022-08-25T10:22:32.201Z,23.55
2022-08-25T10:25:01.143Z,22.08
2022-08-25T10:27:40.960Z,18.40
2022-08-25T10:30:23.873Z,23.35
2022-08-25T10:32:52.273Z,18.02
2022-08-25T10:35:35.718Z,17.88
2022-08-25T10:38:21.644Z,21.20
2022-08-25T10:41:02.180Z,18.70
2022-08-25T10:43:50.610Z,19.55
2022-08-25T10:46:45.598Z,23.80
2022-08-25T10:49:16.900Z,18.20
2022-08-25T10:52:12.097Z,13.00
2022-08-25T10:55:09.748Z,13.27
2022-08-25T10:58:00.552Z,14.52
2022-08-25T11:00:37.886Z,17.27
2022-08-25T11:03:12.403Z,18.48
2022-08-25T11:05:50.733Z,14.10
2022-08-25T11:08:41.373Z,21.33
2022-08-25T11:11:33.245Z,13.15
2022-08-25T11:14:11.322Z,18.00
2022-08-25T11:16:57.930Z,20.05
2022-08-25T11:19:33.830Z,19.98
2022-08-25T11:22:01.705Z,15.30
2022-08-25T11:24:33.090Z,16.13
2022-08-25T11:27:09.074Z,13.95
2022-08-25T11:29:44.233Z,11.82
2022-08-25T11:32:13.090Z,13.38
2022-08-25T11:34:43.715Z,11.32
2022-08-25T11:37:24.262Z,10.82
2022-08-25T11:40:04.754Z,17.40
2022-08-25T11:43:08.379Z,19.15
2022-08-25T11:45:54.623Z,21.48
2022-08-25T11:48:29.903Z,13.60
2022-08-25T11:51:04.993Z,18.10
2022-08-25T11:53:37.630Z,16.73
2022-08-25T11:56:30.751Z,16.27
2022-08-25T11:58:59.421Z,17.08
2022-08-25T12:01:46.198Z,16.13
2022-08-25T12:04:34.158Z,13.82
2022-08-25T12:07:14.172Z,21.02
2022-08-25T12:09:51.878Z,15.88
2022-08-25T12:12:32.870Z,19.98
2022-08-25T12:15:32.181Z,12.90
2022-08-25T12:20:58.213Z,12.82
2022-08-25T12:23:30.072Z,16.85
2022-08-25T12:26:11.096Z,15.13
2022-08-25T12:29:01.609Z,17.75
2022-08-25T12:32:09.275Z,14.15
2022-08-25T12:34:53.682Z,15.00
2022-08-25T12:37:24.521Z,18.58
2022-08-25T12:39:55.353Z,15.30
2022-08-25T12:42:40.311Z,15.40
2022-08-25T12:45:08.364Z,13.85
2022-08-25T12:47:43.054Z,16.00
2022-08-25T12:50:48.784Z,17.48
2022-08-25T12:53:25.761Z,16.75
2022-08-25T12:56:01.848Z,20.92
2022-08-25T12:59:00.233Z,17.35
2022-08-25T13:02:02.917Z,22.02
2022-08-25T13:04:50.837Z,16.77
2022-08-25T13:07:33.885Z,19.27
2022-08-25T13:10:35.479Z,18.35
2022-08-25T13:13:26.537Z,17.83
2022-08-25T13:16:06.758Z,21.98
2022-08-25T13:18:37.036Z,19.83
2022-08-25T13:21:25.378Z,17.40
2022-08-25T13:24:04.686Z,20.02
2022-08-25T13:26:48.367Z,19.13
2022-08-25T13:29:22.302Z,12.35
2022-08-25T13:31:57.852Z,15.65
2022-08-25T13:34:35.064Z,12.13
2022-08-25T13:37:31.350Z,13.77
2022-08-25T13:40:13.756Z,18.10
2022-08-25T13:42:48.991Z,17.40
2022-08-25T13:45:28.428Z,18.60
2022-08-25T13:47:58.303Z,13.50
2022-08-25T13:50:26.365Z,10.90
2022-08-25T13:53:06.529Z,17.15
2022-08-25T13:55:50.834Z,12.85
2022-08-25T13:58:32.478Z,18.02
2022-08-25T14:01:23.062Z,14.30
2022-08-25T14:04:20.741Z,12.85
2022-08-25T14:06:49.546Z,17.52
2022-08-25T14:09:28.212Z,16.20
2022-08-25T14:11:58.736Z,17.60
2022-08-25T14:14:26.451Z,17.35
2022-08-25T14:17:00.837Z,21.38
2022-08-25T14:19:30.848Z,21.48
2022-08-25T14:22:03.125Z,21.13
2022-08-25T14:24:40.707Z,21.70
2022-08-25T14:27:08.782Z,19.88
2022-08-25T14:29:41.281Z,21.55
2022-08-25T14:32:10.782Z,17.50
2022-08-25T14:34:41.740Z,19.92
2022-08-25T14:37:17.591Z,20.25
2022-08-25T14:39:46.746Z,22.25
2022-08-25T14:42:16.921Z,16.25
2022-08-25T14:44:45.576Z,19.38
2022-08-25T14:47:13.767Z,14.90
2022-08-25T14:49:44.141Z,14.25
2022-08-25T14:52:22.416Z,13.95
2022-08-25T14:54:51.143Z,16.85
2022-08-25T14:57:19.804Z,16.63
2022-08-25T15:02:20.424Z,28.15
2022-08-25T15:05:00.945Z,22.50
2022-08-25T15:07:50.397Z,19.42
2022-08-25T15:10:19.052Z,24.25
2022-08-25T15:12:54.707Z,18.17
2022-08-25T15:15:26.459Z,13.02
2022-08-25T15:17:58.146Z,19.83
2022-08-25T15:20:29.214Z,19.90
2022-08-25T15:22:57.555Z,18.98
2022-08-25T15:25:26.466Z,10.77
2022-08-25T15:27:56.487Z,20.73
2022-08-25T15:30:31.273Z,20.27
2022-08-25T15:32:59.985Z,23.20
2022-08-25T15:35:29.343Z,13.57
2022-08-25T15:37:57.695Z,17.45
2022-08-25T15:40:28.072Z,16.70
2022-08-25T15:42:56.122Z,21.17
2022-08-25T15:45:24.279Z,21.05
2022-08-25T15:47:54.086Z,21.80
2022-08-25T15:52:54.468Z,22.02
2022-08-25T15:55:22.352Z,18.38
2022-08-25T15:57:50.463Z,20.27
2022-08-25T16:00:19.165Z,20.00
2022-08-25T16:02:50.120Z,21.23
2022-08-25T16:05:20.443Z,16.08
2022-08-25T16:07:53.810Z,21.73
2022-08-25T16:10:22.619Z,22.35
2022-08-25T16:12:52.008Z,26.20
2022-08-25T16:15:23.829Z,24.05
2022-08-25T16:17:52.042Z,24.55
2022-08-25T16:20:21.133Z,22.48
2022-08-25T16:22:52.240Z,26.73
2022-08-25T16:25:20.768Z,24.05
2022-08-25T16:27:49.513Z,26.90
2022-08-25T16:30:18.242Z,23.05
2022-08-25T16:32:46.988Z,23.40
2022-08-25T16:35:15.837Z,16.40
2022-08-25T16:37:44.892Z,27.95
2022-08-25T16:40:14.969Z,21.02
2022-08-25T16:42:42.889Z,19.90
2022-08-25T16:45:11.969Z,15.23
2022-08-25T16:47:40.091Z,17.13
2022-08-25T16:50:11.889Z,23.60
2022-08-25T16:52:59.447Z,26.70
2022-08-25T16:55:38.853Z,21.40
2022-08-25T16:58:08.892Z,22.15
2022-08-25T17:00:44.563Z,26.95
2022-08-25T17:03:13.224Z,15.05
2022-08-25T17:05:43.263Z,22.05
2022-08-25T17:11:27.512Z,24.38
2022-08-25T17:13:59.150Z,25.15
2022-08-25T17:16:31.383Z,28.00
2022-08-25T17:19:08.556Z,16.75
2022-08-25T17:21:45.052Z,23.85
2022-08-25T17:24:14.474Z,18.70
2022-08-25T17:26:43.894Z,23.63
2022-08-25T17:29:12.453Z,26.77
2022-08-25T17:31:41.101Z,19.77
2022-08-25T17:34:11.087Z,21.63
2022-08-25T17:36:40.998Z,19.85
2022-08-25T17:39:10.655Z,18.48
2022-08-25T17:41:38.834Z,30.00
2022-08-25T17:44:09.065Z,25.40
2022-08-25T17:46:44.169Z,27.92
2022-08-25T17:49:17.411Z,25.35
2022-08-25T17:54:13.955Z,27.25
2022-08-25T17:56:41.944Z,35.35
2022-08-25T17:59:10.583Z,25.67
2022-08-25T18:01:42.075Z,23.13
2022-08-25T18:04:17.254Z,21.95
2022-08-25T18:06:48.800Z,26.77
2022-08-25T18:09:18.021Z,23.60
2022-08-25T18:11:46.662Z,28.30
2022-08-25T18:14:17.172Z,20.30
2022-08-25T18:16:46.088Z,32.42
2022-08-25T18:19:15.075Z,25.42
2022-08-25T18:21:43.334Z,24.25
2022-08-25T18:24:13.419Z,31.48
2022-08-25T18:26:42.567Z,20.60
2022-08-25T18:29:13.412Z,30.20
2022-08-25T18:31:42.538Z,29.35
2022-08-25T18:34:13.497Z,32.60
2022-08-25T18:36:41.867Z,16.33
2022-08-25T18:39:34.073Z,27.90
2022-08-25T18:42:07.223Z,26.85
2022-08-25T18:44:36.639Z,23.63
2022-08-25T18:47:07.392Z,21.83
2022-08-25T18:49:37.912Z,29.25
2022-08-25T18:52:07.497Z,26.58
2022-08-25T18:54:36.323Z,18.00
2022-08-25T18:57:05.145Z,25.80
2022-08-25T18:59:38.658Z,29.48
2022-08-25T19:02:08.402Z,23.90
2022-08-25T19:04:39.297Z,30.88
2022-08-25T19:07:13.570Z,24.15
2022-08-25T19:09:41.818Z,22.83
2022-08-25T19:12:11.883Z,24.95
2022-08-25T19:14:52.955Z,20.88
2022-08-25T19:17:24.747Z,15.40
2022-08-25T19:19:57.293Z,23.63
2022-08-25T19:22:41.090Z,16.98
2022-08-25T19:25:11.610Z,21.60
2022-08-25T19:27:41.218Z,20.50
2022-08-25T19:30:13.574Z,21.42
2022-08-25T19:32:43.732Z,17.13
2022-08-25T19:35:22.334Z,25.58
2022-08-25T19:37:52.382Z,22.17
2022-08-25T19:40:21.943Z,27.50
2022-08-25T19:42:54.658Z,18.63
2022-08-25T19:45:23.430Z,18.02
2022-08-25T19:47:52.146Z,15.93
2022-08-25T19:50:23.137Z,17.63
2022-08-25T19:55:20.361Z,19.02
2022-08-25T19:57:48.504Z,22.95
2022-08-25T20:00:25.988Z,21.38
2022-08-25T20:02:54.297Z,17.90
2022-08-25T20:05:24.574Z,21.60
2022-08-25T20:10:22.790Z,21.23
2022-08-25T20:12:52.060Z,18.02
2022-08-25T20:15:22.467Z,26.07
2022-08-25T20:17:51.553Z,18.40
2022-08-25T20:20:24.838Z,19.48
2022-08-25T20:22:55.790Z,29.92
2022-08-25T20:25:27.061Z,19.33
2022-08-25T20:28:05.242Z,21.48
2022-08-25T20:30:33.320Z,18.75
2022-08-25T20:33:02.033Z,16.45
2022-08-25T20:35:30.710Z,19.85
2022-08-25T20:37:59.250Z,27.58
2022-08-25T20:40:30.162Z,23.38
2022-08-25T20:43:03.114Z,18.50
2022-08-25T20:45:31.604Z,15.52
2022-08-25T20:47:59.901Z,18.52
2022-08-25T20:50:29.984Z,20.23
2022-08-25T20:52:59.501Z,19.88
2022-08-25T20:55:30.249Z,25.35
2022-08-25T20:57:58.915Z,18.08
2022-08-25T21:00:27.013Z,20.85
2022-08-25T21:02:55.275Z,17.73
2022-08-25T21:05:23.198Z,16.77
2022-08-25T21:07:51.459Z,20.45
2022-08-25T21:10:19.437Z,21.02
2022-08-25T21:12:49.332Z,16.73
2022-08-25T21:15:21.885Z,21.60
2022-08-25T21:17:51.430Z,17.77
2022-08-25T21:20:20.672Z,27.67
2022-08-25T21:22:49.508Z,21.67
2022-08-25T21:25:19.337Z,18.10
2022-08-25T21:27:48.067Z,20.70
2022-08-25T21:30:17.593Z,24.52
2022-08-25T21:32:53.514Z,17.17
2022-08-25T21:35:23.522Z,20.83
2022-08-25T21:37:53.313Z,21.30
2022-08-25T21:40:23.273Z,20.95
2022-08-25T21:42:52.134Z,17.63
2022-08-25T21:45:21.012Z,18.40
2022-08-25T21:47:49.990Z,21.55
2022-08-25T21:50:20.630Z,24.02
2022-08-25T21:52:48.469Z,22.10
2022-08-25T21:55:22.490Z,23.70
2022-08-25T21:57:50.588Z,24.60
2022-08-25T22:00:21.348Z,21.60
2022-08-25T22:02:50.400Z,24.42
2022-08-25T22:05:18.383Z,20.65
2022-08-25T22:07:46.502Z,18.73
2022-08-25T22:10:16.526Z,23.90
2022-08-25T22:15:16.667Z,18.40
2022-08-25T22:17:48.048Z,20.35
2022-08-25T22:20:18.411Z,14.38
2022-08-25T22:22:46.260Z,25.73
2022-08-25T22:25:14.378Z,21.50
2022-08-25T22:27:42.859Z,27.00
2022-08-25T22:30:11.558Z,23.13
2022-08-25T22:32:39.461Z,18.17
2022-08-25T22:35:08.506Z,27.00
2022-08-25T22:37:37.591Z,20.10
2022-08-25T22:40:06.290Z,23.88
2022-08-25T22:42:34.378Z,23.42
2022-08-25T22:45:02.298Z,22.33
2022-08-25T22:47:31.451Z,20.63
2022-08-25T22:49:59.556Z,21.92
2022-08-25T22:52:33.414Z,24.35
2022-08-25T22:55:03.507Z,20.30
2022-08-25T22:57:31.606Z,21.65
2022-08-25T22:59:59.517Z,22.20
2022-08-25T23:02:30.301Z,25.48
2022-08-25T23:04:58.359Z,21.80
2022-08-25T23:07:29.610Z,21.10
2022-08-25T23:09:59.939Z,20.45
2022-08-25T23:14:55.488Z,21.90
2022-08-25T23:17:23.183Z,26.38
2022-08-25T23:19:50.987Z,25.27
2022-08-25T23:22:18.686Z,30.23
2022-08-25T23:24:49.335Z,23.85
2022-08-25T23:27:19.245Z,28.40
2022-08-25T23:29:50.104Z,21.48
2022-08-25T23:32:19.282Z,17.92
2022-08-25T23:34:47.414Z,26.20
2022-08-25T23:37:16.239Z,23.70
2022-08-25T23:39:49.515Z,17.40
2022-08-25T23:42:19.411Z,18.85
2022-08-25T23:44:48.625Z,22.77
2022-08-25T23:47:18.066Z,22.88
2022-08-25T23:49:46.318Z,17.70
2022-08-25T23:52:17.788Z,23.23
2022-08-25T23:54:46.519Z,18.05
2022-08-25T23:57:14.909Z,25.15
2022-08-25T23:59:43.283Z,27.73
